Dike, Texas
Current Conditions -  °F | °C
As of 1:55 PM on Sunday 25 Jan 2015 (Local Time) from KSLR Reporting Station
Clear Clear  
Wind Chill: 61°   Ceiling: Unl
Heat Index: 61°   Visibility: 10mi
Dew Point: 31°   Wind: 23mph
Humidity: 32%   Direction: 300°WNW
Pressure: 29.99"   Gusts: 28mph
Location:  33.24°N, 95.48°W
Report Text: KSLR 251955Z AUTO 30020G24KT 10SM CLR 16/M01 A2999 RMK AO2 T01611006
Loading
Personal Weather Stations






























Interactive Weather Map New forecast layout! Learn more

10-Day Weather Forecast

Advertisements
Track Severe Weather on mobile